Terminal Aerodrome Forecast
Issued by NWS Sterling, VA

Home | Current Version | Previous Version | Text Only | Print | Product List | Glossary On
Versions: 1 2 3 4 5 6 7 8 9 10 11 12 13 14 15 16 17 18 19 20 21
000
FTUS41 KLWX 102141 AAA
TAFBWI
TAF AMD
KBWI 102141Z 1022/1124 28012G18KT P6SM FEW050
     FM102300 29005KT P6SM SKC
     FM110700 VRB03KT P6SM BKN100
     FM111500 14005KT P6SM OVC070=

USA.gov is the U.S. government's official web portal to all federal, state and local government web resources and services.